Time;durP1;ratioP1;P1;durP2;ratioP2;P2;SDS_P1;SDS_P2;PMS_P1;PMS_P2;Temp;Humidity;BMP_temperature;BMP_pressure;BME280_temperature;BME280_humidity;BME280_pressure;Samples;Min_cycle;Max_cycle;Signal;HPM_P1;HPM_P2
2023/06/16 00:00:12;;;;;;;0.00;0.00;;;;;;;;;;5072292;28;20399;-83
2023/06/16 00:02:41;;;;;;;0.22;0.00;;;;;;;;;;5071101;28;20484;-83
2023/06/16 00:05:09;;;;;;;0.00;0.00;;;;;;;;;;5071245;28;20115;-83
2023/06/16 00:07:36;;;;;;;0.00;0.00;;;;;;;;;;5054737;28;20554;-83
2023/06/16 00:10:03;;;;;;;0.00;0.00;;;;;;;;;;5071144;28;20333;-83
2023/06/16 00:12:29;;;;;;;0.00;0.00;;;;;;;;;;5072474;28;20128;-84
2023/06/16 00:14:55;;;;;;;0.00;0.00;;;;;;;;;;5070933;28;20133;-83
2023/06/16 00:17:23;;;;;;;0.00;0.00;;;;;;;;;;5071034;28;20045;-83
2023/06/16 00:19:49;;;;;;;0.00;0.00;;;;;;;;;;5070860;28;20072;-83
2023/06/16 00:22:15;;;;;;;0.05;0.00;;;;;;;;;;5071307;28;20434;-83
2023/06/16 00:24:41;;;;;;;0.10;0.00;;;;;;;;;;5073310;28;20040;-82
2023/06/16 00:27:07;;;;;;;0.00;0.00;;;;;;;;;;5071245;28;20053;-83
2023/06/16 00:29:34;;;;;;;0.00;0.00;;;;;;;;;;5071945;28;20048;-82
2023/06/16 00:32:00;;;;;;;0.00;0.00;;;;;;;;;;5072151;28;20518;-83
2023/06/16 00:34:26;;;;;;;0.00;0.00;;;;;;;;;;5071938;28;20044;-83
2023/06/16 00:36:52;;;;;;;0.00;0.00;;;;;;;;;;5070870;28;20154;-83
2023/06/16 00:39:18;;;;;;;0.00;0.00;;;;;;;;;;5071071;28;20113;-83
2023/06/16 00:41:44;;;;;;;0.00;0.00;;;;;;;;;;5070798;28;20051;-83
2023/06/16 00:44:10;;;;;;;0.00;0.00;;;;;;;;;;5070943;28;20491;-83
2023/06/16 00:46:36;;;;;;;0.00;0.00;;;;;;;;;;5074376;28;20048;-83
2023/06/16 00:49:02;;;;;;;0.00;0.00;;;;;;;;;;5074416;28;20081;-83
2023/06/16 00:51:30;;;;;;;0.00;0.00;;;;;;;;;;5075902;28;20118;-84
2023/06/16 00:53:56;;;;;;;0.00;0.00;;;;;;;;;;5074080;28;20109;-83
2023/06/16 00:56:23;;;;;;;0.00;0.00;;;;;;;;;;5074043;28;20063;-83
2023/06/16 00:58:50;;;;;;;0.00;0.00;;;;;;;;;;5075360;28;20098;-83
2023/06/16 01:01:18;;;;;;;0.17;0.05;;;;;;;;;;5074421;28;20449;-83
2023/06/16 01:03:50;;;;;;;0.00;0.00;;;;;;;;;;5074140;28;20041;-83
2023/06/16 01:06:43;;;;;;;0.00;0.00;;;;;;;;;;5057533;28;20123;-83
2023/06/16 01:09:36;;;;;;;0.00;0.00;;;;;;;;;;5075404;28;20128;-83
2023/06/16 01:12:17;;;;;;;0.00;0.00;;;;;;;;;;5073802;28;20052;-84
2023/06/16 01:14:57;;;;;;;0.00;0.00;;;;;;;;;;5075160;28;20130;-84
2023/06/16 01:17:24;;;;;;;0.00;0.00;;;;;;;;;;5073820;28;20189;-83
2023/06/16 01:19:53;;;;;;;0.00;0.00;;;;;;;;;;5074946;28;20036;-83
2023/06/16 01:22:25;;;;;;;0.00;0.00;;;;;;;;;;5074957;28;20040;-83
2023/06/16 01:24:54;;;;;;;0.00;0.00;;;;;;;;;;5073813;28;20135;-83
2023/06/16 01:27:21;;;;;;;0.00;0.00;;;;;;;;;;5073938;28;20044;-84
2023/06/16 01:29:48;;;;;;;0.00;0.00;;;;;;;;;;5073828;28;20162;-83
2023/06/16 01:32:16;;;;;;;0.00;0.00;;;;;;;;;;5073800;28;20543;-84
2023/06/16 01:34:42;;;;;;;0.00;0.00;;;;;;;;;;5073373;28;20048;-84
2023/06/16 01:37:09;;;;;;;0.00;0.00;;;;;;;;;;5073469;28;20142;-85
2023/06/16 01:39:36;;;;;;;0.00;0.00;;;;;;;;;;5073173;28;20040;-85
2023/06/16 01:42:02;;;;;;;0.00;0.00;;;;;;;;;;5073796;28;20539;-83
2023/06/16 01:44:29;;;;;;;0.00;0.00;;;;;;;;;;5056608;28;20037;-83
2023/06/16 01:46:56;;;;;;;0.00;0.00;;;;;;;;;;5073423;28;20042;-83
2023/06/16 01:49:22;;;;;;;0.00;0.00;;;;;;;;;;5074400;28;20044;-83
2023/06/16 01:51:48;;;;;;;0.05;0.00;;;;;;;;;;5073239;28;20146;-83
2023/06/16 01:54:14;;;;;;;0.00;0.00;;;;;;;;;;5074827;28;20048;-83
2023/06/16 01:56:41;;;;;;;0.00;0.00;;;;;;;;;;5072585;28;20127;-83
2023/06/16 01:59:07;;;;;;;0.00;0.00;;;;;;;;;;5073260;28;20059;-83
2023/06/16 02:01:43;;;;;;;0.00;0.00;;;;;;;;;;5074318;28;20036;-83
2023/06/16 02:04:10;;;;;;;0.25;0.00;;;;;;;;;;5073289;28;20079;-84
2023/06/16 02:06:39;;;;;;;0.00;0.00;;;;;;;;;;5072825;28;20125;-84
2023/06/16 02:09:09;;;;;;;0.00;0.00;;;;;;;;;;5073046;28;20044;-84
2023/06/16 02:11:35;;;;;;;0.00;0.00;;;;;;;;;;5074040;28;20067;-83
2023/06/16 02:14:02;;;;;;;0.00;0.00;;;;;;;;;;5072905;28;20040;-83
2023/06/16 02:16:29;;;;;;;0.00;0.00;;;;;;;;;;5072481;28;20387;-83
2023/06/16 02:18:55;;;;;;;0.00;0.00;;;;;;;;;;5076080;28;20384;-83
2023/06/16 02:21:21;;;;;;;0.00;0.00;;;;;;;;;;5072498;28;20506;-84
2023/06/16 02:23:47;;;;;;;0.00;0.00;;;;;;;;;;5074072;28;20086;-83
2023/06/16 02:26:13;;;;;;;0.00;0.00;;;;;;;;;;5073880;28;20044;-83
2023/06/16 02:28:39;;;;;;;0.00;0.00;;;;;;;;;;5074138;28;20106;-84
2023/06/16 02:31:05;;;;;;;0.00;0.00;;;;;;;;;;5072208;28;20516;-84
2023/06/16 02:33:31;;;;;;;0.00;0.00;;;;;;;;;;5073791;28;20087;-84
2023/06/16 02:35:57;;;;;;;0.00;0.00;;;;;;;;;;5072297;28;20510;-82
2023/06/16 02:38:24;;;;;;;0.00;0.00;;;;;;;;;;5072449;28;20040;-83
2023/06/16 02:40:50;;;;;;;0.00;0.00;;;;;;;;;;5073541;28;20189;-84
2023/06/16 02:43:16;;;;;;;0.00;0.00;;;;;;;;;;5073655;28;20090;-83
2023/06/16 02:45:42;;;;;;;0.00;0.00;;;;;;;;;;5072081;28;20490;-83
2023/06/16 02:48:08;;;;;;;0.00;0.00;;;;;;;;;;5072275;28;20126;-83
2023/06/16 02:50:34;;;;;;;0.00;0.00;;;;;;;;;;5071882;28;20045;-83
2023/06/16 02:53:01;;;;;;;0.00;0.00;;;;;;;;;;5072202;28;20055;-83
2023/06/16 02:55:27;;;;;;;0.00;0.00;;;;;;;;;;5073019;28;20133;-83
2023/06/16 02:57:53;;;;;;;0.00;0.00;;;;;;;;;;5072083;28;20076;-84
2023/06/16 03:00:19;;;;;;;0.00;0.00;;;;;;;;;;5071572;28;20129;-83
2023/06/16 03:02:45;;;;;;;0.00;0.00;;;;;;;;;;5071878;28;20044;-83
2023/06/16 03:05:11;;;;;;;0.00;0.00;;;;;;;;;;5071426;28;20419;-83
2023/06/16 03:07:38;;;;;;;0.00;0.00;;;;;;;;;;5071604;28;20127;-84
2023/06/16 03:10:07;;;;;;;0.00;0.00;;;;;;;;;;5072844;28;20503;-83
2023/06/16 03:12:33;;;;;;;0.00;0.00;;;;;;;;;;5071696;28;20040;-83
2023/06/16 03:14:59;;;;;;;0.00;0.00;;;;;;;;;;5071716;28;20050;-83
2023/06/16 03:17:25;;;;;;;0.00;0.00;;;;;;;;;;5071314;28;20051;-84
2023/06/16 03:19:52;;;;;;;0.00;0.00;;;;;;;;;;5072925;28;20045;-83
2023/06/16 03:22:18;;;;;;;0.00;0.00;;;;;;;;;;5071281;28;20040;-83
2023/06/16 03:24:44;;;;;;;0.00;0.00;;;;;;;;;;5071544;28;20445;-83
2023/06/16 03:27:15;;;;;;;0.05;0.00;;;;;;;;;;5072598;28;20040;-84
2023/06/16 03:29:42;;;;;;;0.00;0.00;;;;;;;;;;5054798;28;20480;-83
2023/06/16 03:32:09;;;;;;;0.00;0.00;;;;;;;;;;5071505;28;20036;-84
2023/06/16 03:34:35;;;;;;;0.00;0.00;;;;;;;;;;5071543;28;20036;-83
2023/06/16 03:37:01;;;;;;;0.00;0.00;;;;;;;;;;5071146;28;20044;-84
2023/06/16 03:39:27;;;;;;;0.00;0.00;;;;;;;;;;5071461;28;20450;-84
2023/06/16 03:41:53;;;;;;;0.00;0.00;;;;;;;;;;5072377;28;20040;-83
2023/06/16 03:44:19;;;;;;;0.00;0.00;;;;;;;;;;5071382;28;20048;-83
2023/06/16 03:46:45;;;;;;;0.00;0.00;;;;;;;;;;5071138;28;20048;-83
2023/06/16 03:49:11;;;;;;;0.00;0.00;;;;;;;;;;5071318;28;20040;-83
2023/06/16 03:51:39;;;;;;;0.00;0.00;;;;;;;;;;5071309;28;20410;-83
2023/06/16 03:54:05;;;;;;;0.00;0.00;;;;;;;;;;5054896;28;20310;-84
2023/06/16 03:56:33;;;;;;;0.00;0.00;;;;;;;;;;5070896;28;20048;-83
2023/06/16 03:58:59;;;;;;;0.00;0.00;;;;;;;;;;5072406;28;20453;-83
2023/06/16 04:01:25;;;;;;;0.00;0.00;;;;;;;;;;5071156;28;20044;-84
2023/06/16 04:03:51;;;;;;;0.00;0.00;;;;;;;;;;5072813;28;20045;-83
2023/06/16 04:06:17;;;;;;;0.00;0.00;;;;;;;;;;5072354;28;20484;-84
2023/06/16 04:08:44;;;;;;;0.00;0.00;;;;;;;;;;5071149;28;20051;-83
2023/06/16 04:11:10;;;;;;;0.00;0.00;;;;;;;;;;5070854;28;20064;-84
2023/06/16 04:13:36;;;;;;;0.00;0.00;;;;;;;;;;5072582;28;20079;-84
2023/06/16 04:16:03;;;;;;;0.00;0.00;;;;;;;;;;5072224;28;20084;-83
2023/06/16 04:18:29;;;;;;;0.00;0.00;;;;;;;;;;5071028;28;20052;-83
2023/06/16 04:20:55;;;;;;;0.00;0.00;;;;;;;;;;5074744;28;20036;-83
2023/06/16 04:23:21;;;;;;;0.00;0.00;;;;;;;;;;5075609;28;20068;-84
2023/06/16 04:25:48;;;;;;;0.00;0.00;;;;;;;;;;5076541;28;20090;-84
2023/06/16 04:28:14;;;;;;;0.00;0.00;;;;;;;;;;5076671;28;20119;-83
2023/06/16 04:30:43;;;;;;;0.00;0.00;;;;;;;;;;5075725;28;20506;-84
2023/06/16 04:33:10;;;;;;;0.00;0.00;;;;;;;;;;5075282;28;20467;-84
2023/06/16 04:35:39;;;;;;;0.00;0.00;;;;;;;;;;5075155;28;20048;-84
2023/06/16 04:38:06;;;;;;;0.00;0.00;;;;;;;;;;5074943;28;20049;-84
2023/06/16 04:40:32;;;;;;;0.00;0.00;;;;;;;;;;5074969;28;20415;-83
2023/06/16 04:42:58;;;;;;;0.00;0.00;;;;;;;;;;5074675;28;20052;-84
2023/06/16 04:45:24;;;;;;;0.00;0.00;;;;;;;;;;5075264;28;20040;-83
2023/06/16 04:47:51;;;;;;;0.00;0.00;;;;;;;;;;5074615;28;20083;-83
2023/06/16 04:50:17;;;;;;;0.00;0.00;;;;;;;;;;5076129;28;20468;-84
2023/06/16 04:52:44;;;;;;;0.00;0.00;;;;;;;;;;5075691;28;20040;-83
2023/06/16 04:55:10;;;;;;;0.00;0.00;;;;;;;;;;5057629;28;20036;-84
2023/06/16 04:57:36;;;;;;;0.00;0.00;;;;;;;;;;5074287;28;20052;-83
2023/06/16 05:00:06;;;;;;;0.00;0.00;;;;;;;;;;5074345;28;20107;-84
2023/06/16 05:02:33;;;;;;;0.00;0.00;;;;;;;;;;5075464;28;20045;-83
2023/06/16 05:05:00;;;;;;;0.15;0.15;;;;;;;;;;5075687;28;20040;-84
2023/06/16 05:07:26;;;;;;;0.00;0.00;;;;;;;;;;5074058;28;20052;-83
2023/06/16 05:09:52;;;;;;;0.00;0.00;;;;;;;;;;5074440;28;20102;-84
2023/06/16 05:12:18;;;;;;;0.00;0.00;;;;;;;;;;5075342;28;20111;-83
2023/06/16 05:14:45;;;;;;;0.00;0.00;;;;;;;;;;5077835;28;20120;-84
2023/06/16 05:17:11;;;;;;;0.00;0.00;;;;;;;;;;5075277;28;20037;-84
2023/06/16 05:19:37;;;;;;;0.00;0.00;;;;;;;;;;5074194;28;20047;-83
2023/06/16 05:22:03;;;;;;;0.00;0.00;;;;;;;;;;5074105;28;20080;-83
2023/06/16 05:24:29;;;;;;;0.00;0.00;;;;;;;;;;5073913;28;20040;-83
2023/06/16 05:26:55;;;;;;;0.05;0.00;;;;;;;;;;5073914;28;20051;-83
2023/06/16 05:29:21;;;;;;;0.00;0.00;;;;;;;;;;5074036;28;20392;-84
2023/06/16 05:31:47;;;;;;;0.00;0.00;;;;;;;;;;5074596;28;20044;-84
2023/06/16 05:34:13;;;;;;;0.00;0.00;;;;;;;;;;5073690;28;20040;-83
2023/06/16 05:36:39;;;;;;;0.00;0.00;;;;;;;;;;5073431;28;20048;-84
2023/06/16 05:39:08;;;;;;;0.00;0.00;;;;;;;;;;5075155;28;20036;-83
2023/06/16 05:41:34;;;;;;;0.00;0.00;;;;;;;;;;5073484;28;20047;-83
2023/06/16 05:44:02;;;;;;;0.00;0.00;;;;;;;;;;5073487;28;20044;-84
2023/06/16 05:46:28;;;;;;;0.00;0.00;;;;;;;;;;5073529;28;20040;-84
2023/06/16 05:48:54;;;;;;;0.00;0.00;;;;;;;;;;5073196;28;20041;-83
2023/06/16 05:51:20;;;;;;;0.00;0.00;;;;;;;;;;5074641;28;20063;-83
2023/06/16 05:53:47;;;;;;;0.00;0.00;;;;;;;;;;5073065;28;20044;-84
2023/06/16 05:56:13;;;;;;;0.00;0.00;;;;;;;;;;5072926;28;20045;-83
2023/06/16 05:58:39;;;;;;;0.00;0.00;;;;;;;;;;5073274;28;20044;-83
2023/06/16 06:01:09;;;;;;;0.00;0.00;;;;;;;;;;5074484;28;20514;-83
2023/06/16 06:03:35;;;;;;;0.00;0.00;;;;;;;;;;5073174;28;20125;-83
2023/06/16 06:06:01;;;;;;;0.00;0.00;;;;;;;;;;5074728;28;20440;-83
2023/06/16 06:08:28;;;;;;;0.00;0.00;;;;;;;;;;5074142;28;20040;-83
2023/06/16 06:11:01;;;;;;;0.00;0.00;;;;;;;;;;5073032;28;20166;-83
2023/06/16 06:13:27;;;;;;;0.00;0.00;;;;;;;;;;5074169;28;20127;-84
2023/06/16 06:15:53;;;;;;;0.00;0.00;;;;;;;;;;5072991;28;20443;-84
2023/06/16 06:18:19;;;;;;;0.00;0.00;;;;;;;;;;5072718;28;20045;-83
2023/06/16 06:20:45;;;;;;;0.00;0.00;;;;;;;;;;5074171;28;20046;-85
2023/06/16 06:23:11;;;;;;;0.00;0.00;;;;;;;;;;5072874;28;20041;-84
2023/06/16 06:25:40;;;;;;;0.00;0.00;;;;;;;;;;5072771;28;20266;-84
2023/06/16 06:28:06;;;;;;;0.00;0.00;;;;;;;;;;5072575;28;20044;-84
2023/06/16 06:30:32;;;;;;;0.00;0.00;;;;;;;;;;5073739;28;20456;-84
2023/06/16 06:32:57;;;;;;;0.00;0.00;;;;;;;;;;5073726;28;20032;-84
2023/06/16 06:35:23;;;;;;;0.00;0.00;;;;;;;;;;5072660;28;20091;-84
2023/06/16 06:37:50;;;;;;;0.00;0.00;;;;;;;;;;5073888;28;20101;-84
2023/06/16 06:40:16;;;;;;;0.00;0.00;;;;;;;;;;5072610;28;20051;-83
2023/06/16 06:42:42;;;;;;;0.00;0.00;;;;;;;;;;5072546;28;20040;-83
2023/06/16 06:45:10;;;;;;;0.00;0.00;;;;;;;;;;5072275;28;20040;-82
2023/06/16 06:47:36;;;;;;;0.00;0.00;;;;;;;;;;5073351;28;20041;-83
2023/06/16 06:50:03;;;;;;;0.00;0.00;;;;;;;;;;5072180;28;20048;-83
2023/06/16 06:52:29;;;;;;;0.00;0.00;;;;;;;;;;5071817;28;20040;-84
2023/06/16 06:54:56;;;;;;;0.00;0.00;;;;;;;;;;5073797;28;20040;-91
2023/06/16 06:57:22;;;;;;;0.00;0.00;;;;;;;;;;5072108;28;20056;-87
2023/06/16 06:59:49;;;;;;;0.00;0.00;;;;;;;;;;5073470;28;20172;-83
2023/06/16 07:02:16;;;;;;;0.00;0.00;;;;;;;;;;5071852;28;20394;-83
2023/06/16 07:04:42;;;;;;;0.00;0.00;;;;;;;;;;5080894;28;20092;-92
2023/06/16 07:07:08;;;;;;;0.00;0.00;;;;;;;;;;5057337;28;20086;-91
2023/06/16 07:09:35;;;;;;;0.00;0.00;;;;;;;;;;5076716;28;20063;-83
2023/06/16 07:12:01;;;;;;;0.00;0.00;;;;;;;;;;5071717;28;20124;-83
2023/06/16 07:14:29;;;;;;;0.00;0.00;;;;;;;;;;5071528;28;20084;-83
2023/06/16 07:16:55;;;;;;;0.00;0.00;;;;;;;;;;5054868;28;20048;-83
2023/06/16 07:19:23;;;;;;;0.00;0.00;;;;;;;;;;5072863;28;20126;-82
2023/06/16 07:21:49;;;;;;;0.00;0.00;;;;;;;;;;5071950;28;20087;-82
2023/06/16 07:24:15;;;;;;;0.00;0.00;;;;;;;;;;5072722;28;20068;-83
2023/06/16 07:26:42;;;;;;;0.00;0.00;;;;;;;;;;5054933;28;20105;-83
2023/06/16 07:29:08;;;;;;;0.00;0.00;;;;;;;;;;5071160;28;20104;-83
2023/06/16 07:31:34;;;;;;;0.00;0.00;;;;;;;;;;5071576;28;20047;-83
2023/06/16 07:34:00;;;;;;;0.00;0.00;;;;;;;;;;5071342;28;20067;-82
2023/06/16 07:36:27;;;;;;;0.00;0.00;;;;;;;;;;5071497;28;20489;-82
2023/06/16 07:38:53;;;;;;;0.85;0.20;;;;;;;;;;5071063;28;20125;-83
2023/06/16 07:41:20;;;;;;;0.00;0.00;;;;;;;;;;5071331;28;20492;-85
2023/06/16 07:43:48;;;;;;;0.00;0.00;;;;;;;;;;5072715;28;20125;-84
2023/06/16 07:46:14;;;;;;;0.00;0.00;;;;;;;;;;5071365;28;20185;-88
2023/06/16 07:48:40;;;;;;;0.10;0.00;;;;;;;;;;5070955;28;20045;-83
2023/06/16 07:51:06;;;;;;;0.17;0.00;;;;;;;;;;5054330;28;20048;-83
2023/06/16 07:53:32;;;;;;;0.00;0.00;;;;;;;;;;5071904;28;20441;-83
2023/06/16 07:55:58;;;;;;;0.00;0.00;;;;;;;;;;5070945;28;20048;-84
2023/06/16 07:58:24;;;;;;;0.00;0.00;;;;;;;;;;5072170;28;20116;-83
2023/06/16 08:00:51;;;;;;;0.00;0.00;;;;;;;;;;5071270;28;20454;-83
2023/06/16 08:03:22;;;;;;;0.00;0.00;;;;;;;;;;5057465;28;20052;-83
2023/06/16 08:05:48;;;;;;;0.00;0.00;;;;;;;;;;5070992;28;20037;-83
2023/06/16 08:08:14;;;;;;;0.00;0.00;;;;;;;;;;5070946;28;20094;-82
2023/06/16 08:10:40;;;;;;;0.00;0.00;;;;;;;;;;5070971;28;20052;-83
2023/06/16 08:13:06;;;;;;;0.00;0.00;;;;;;;;;;5070725;28;20094;-83
2023/06/16 08:15:32;;;;;;;0.00;0.00;;;;;;;;;;5071275;28;20036;-84
2023/06/16 08:17:58;;;;;;;0.00;0.00;;;;;;;;;;5071202;28;20483;-84
2023/06/16 08:20:25;;;;;;;0.00;0.00;;;;;;;;;;5070671;28;20115;-83
2023/06/16 08:22:51;;;;;;;0.00;0.00;;;;;;;;;;5072206;28;20144;-84
2023/06/16 08:25:17;;;;;;;0.10;0.00;;;;;;;;;;5071935;28;20079;-84
2023/06/16 08:27:43;;;;;;;0.00;0.00;;;;;;;;;;5070894;28;20044;-84
2023/06/16 08:30:10;;;;;;;0.00;0.00;;;;;;;;;;5070781;28;20040;-85
2023/06/16 08:32:36;;;;;;;0.00;0.00;;;;;;;;;;5071126;28;20454;-82
2023/06/16 08:35:02;;;;;;;0.00;0.00;;;;;;;;;;5072126;28;20047;-82
2023/06/16 08:37:28;;;;;;;0.00;0.00;;;;;;;;;;5070860;28;20458;-82
2023/06/16 08:39:54;;;;;;;0.00;0.00;;;;;;;;;;5070673;28;20496;-84
2023/06/16 08:42:21;;;;;;;0.00;0.00;;;;;;;;;;5070822;28;20044;-83
2023/06/16 08:44:47;;;;;;;0.00;0.00;;;;;;;;;;5070874;28;20102;-83
2023/06/16 08:47:12;;;;;;;0.00;0.00;;;;;;;;;;5071677;28;20044;-85
2023/06/16 08:49:39;;;;;;;0.00;0.00;;;;;;;;;;5054644;28;20518;-84
2023/06/16 08:52:08;;;;;;;0.00;0.00;;;;;;;;;;5054239;28;20045;-83
2023/06/16 08:54:37;;;;;;;0.00;0.00;;;;;;;;;;5071110;28;20052;-89
2023/06/16 08:57:04;;;;;;;0.00;0.00;;;;;;;;;;5070741;28;20055;-83
2023/06/16 08:59:32;;;;;;;0.05;0.00;;;;;;;;;;5070905;28;20175;-83
2023/06/16 09:02:01;;;;;;;0.00;0.00;;;;;;;;;;5071160;28;20045;-83
2023/06/16 09:04:28;;;;;;;0.00;0.00;;;;;;;;;;5054810;28;20040;-83
2023/06/16 09:06:56;;;;;;;0.25;0.00;;;;;;;;;;5074357;28;20385;-83
2023/06/16 09:09:22;;;;;;;0.00;0.00;;;;;;;;;;5075374;28;20055;-84
2023/06/16 09:12:07;;;;;;;0.00;0.00;;;;;;;;;;5074409;28;20094;-83
2023/06/16 09:14:36;;;;;;;0.00;0.00;;;;;;;;;;5075105;28;20054;-85
2023/06/16 09:17:05;;;;;;;0.00;0.00;;;;;;;;;;5073948;28;20044;-83
2023/06/16 09:19:34;;;;;;;0.00;0.00;;;;;;;;;;5073581;28;20040;-83
2023/06/16 09:22:00;;;;;;;0.00;0.00;;;;;;;;;;5057509;28;20048;-84
2023/06/16 09:24:30;;;;;;;0.00;0.00;;;;;;;;;;5074043;28;20049;-82
2023/06/16 09:26:59;;;;;;;0.00;0.00;;;;;;;;;;5075176;28;20055;-84
2023/06/16 09:29:27;;;;;;;0.00;0.00;;;;;;;;;;5074747;28;20049;-84
2023/06/16 09:31:53;;;;;;;0.00;0.00;;;;;;;;;;5074974;28;20098;-84
2023/06/16 09:34:19;;;;;;;0.30;0.00;;;;;;;;;;5073669;28;20040;-84
2023/06/16 09:36:46;;;;;;;0.00;0.00;;;;;;;;;;5075080;28;20044;-85
2023/06/16 09:39:22;;;;;;;0.00;0.00;;;;;;;;;;5073289;28;20040;-85
2023/06/16 09:41:49;;;;;;;0.00;0.00;;;;;;;;;;5079933;28;20051;-84
2023/06/16 09:44:15;;;;;;;0.00;0.00;;;;;;;;;;5073616;28;20143;-83
2023/06/16 09:46:42;;;;;;;0.00;0.00;;;;;;;;;;5056832;28;20040;-86
2023/06/16 09:49:18;;;;;;;0.00;0.00;;;;;;;;;;5073540;28;20124;-85
2023/06/16 09:51:49;;;;;;;0.00;0.00;;;;;;;;;;5073803;28;20068;-84
2023/06/16 09:54:16;;;;;;;0.00;0.00;;;;;;;;;;5073538;28;20049;-84
2023/06/16 09:56:43;;;;;;;0.03;0.03;;;;;;;;;;5073263;28;20055;-85
2023/06/16 09:59:11;;;;;;;0.00;0.00;;;;;;;;;;5074352;28;20044;-85
2023/06/16 10:01:40;;;;;;;0.00;0.00;;;;;;;;;;5073213;28;20052;-86
2023/06/16 10:04:08;;;;;;;0.00;0.00;;;;;;;;;;5074683;28;20098;-85
2023/06/16 10:06:38;;;;;;;0.00;0.00;;;;;;;;;;5073132;28;20044;-85
2023/06/16 10:09:07;;;;;;;0.00;0.00;;;;;;;;;;5073380;28;20044;-86
2023/06/16 10:11:33;;;;;;;0.00;0.00;;;;;;;;;;5074223;28;20045;-85
2023/06/16 10:14:01;;;;;;;0.00;0.00;;;;;;;;;;5074493;28;20040;-86
2023/06/16 10:16:28;;;;;;;0.00;0.00;;;;;;;;;;5073909;28;20394;-85
2023/06/16 10:18:57;;;;;;;0.00;0.00;;;;;;;;;;5074416;28;20037;-87
2023/06/16 10:21:26;;;;;;;0.00;0.00;;;;;;;;;;5072517;28;20373;-87
2023/06/16 10:23:52;;;;;;;0.00;0.00;;;;;;;;;;5073026;28;20127;-86
2023/06/16 10:26:19;;;;;;;0.00;0.00;;;;;;;;;;5072548;28;20060;-84
2023/06/16 10:28:46;;;;;;;0.00;0.00;;;;;;;;;;5074108;28;20102;-86
2023/06/16 10:31:12;;;;;;;0.00;0.00;;;;;;;;;;5072679;28;20040;-86
2023/06/16 10:33:55;;;;;;;0.00;0.00;;;;;;;;;;5072583;28;20048;-87
2023/06/16 10:36:23;;;;;;;0.00;0.00;;;;;;;;;;5073468;28;20040;-86
2023/06/16 10:38:59;;;;;;;0.00;0.00;;;;;;;;;;5055805;28;20048;-85
2023/06/16 10:41:29;;;;;;;0.00;0.00;;;;;;;;;;5073672;28;20388;-86
2023/06/16 10:43:55;;;;;;;0.00;0.00;;;;;;;;;;5073877;28;20059;-85
2023/06/16 10:46:21;;;;;;;0.00;0.00;;;;;;;;;;5072066;28;20062;-85
2023/06/16 10:48:57;;;;;;;0.00;0.00;;;;;;;;;;5072143;28;20142;-85
2023/06/16 10:51:41;;;;;;;0.00;0.00;;;;;;;;;;5073430;28;20436;-85
2023/06/16 10:54:08;;;;;;;0.00;0.00;;;;;;;;;;5073667;28;20368;-86
2023/06/16 10:56:53;;;;;;;0.00;0.00;;;;;;;;;;5073312;28;20123;-90
2023/06/16 10:59:19;;;;;;;0.00;0.00;;;;;;;;;;5073481;28;20614;-84
2023/06/16 11:01:48;;;;;;;0.00;0.00;;;;;;;;;;5074065;28;20091;-84
2023/06/16 11:04:17;;;;;;;0.00;0.00;;;;;;;;;;5072173;28;20040;-86
2023/06/16 11:07:02;;;;;;;0.00;0.00;;;;;;;;;;5055292;28;20040;-86
2023/06/16 11:09:32;;;;;;;0.00;0.00;;;;;;;;;;5073129;28;20087;-86
2023/06/16 11:11:58;;;;;;;0.00;0.00;;;;;;;;;;5071496;28;20289;-85
2023/06/16 11:14:25;;;;;;;0.00;0.00;;;;;;;;;;5071837;28;20048;-86
2023/06/16 11:16:51;;;;;;;0.32;0.32;;;;;;;;;;5072890;28;20047;-87
2023/06/16 11:19:18;;;;;;;0.00;0.00;;;;;;;;;;5071768;28;20043;-86
2023/06/16 11:21:44;;;;;;;0.00;0.00;;;;;;;;;;5055310;28;20041;-86
2023/06/16 11:24:11;;;;;;;0.05;0.00;;;;;;;;;;5071731;28;20063;-86
2023/06/16 11:26:37;;;;;;;0.00;0.00;;;;;;;;;;5071509;28;20049;-86
2023/06/16 11:29:07;;;;;;;0.05;0.00;;;;;;;;;;5071012;28;20044;-87
2023/06/16 11:31:37;;;;;;;0.00;0.00;;;;;;;;;;5071255;28;20141;-86
2023/06/16 11:34:03;;;;;;;0.00;0.00;;;;;;;;;;5054812;28;20044;-86
2023/06/16 11:36:30;;;;;;;0.00;0.00;;;;;;;;;;5072439;28;20074;-86
2023/06/16 11:38:56;;;;;;;0.00;0.00;;;;;;;;;;5071511;28;20056;-86
2023/06/16 11:41:23;;;;;;;0.00;0.00;;;;;;;;;;5071112;28;20106;-87
2023/06/16 11:43:52;;;;;;;0.00;0.00;;;;;;;;;;5071647;28;20044;-87
2023/06/16 11:46:20;;;;;;;0.13;0.00;;;;;;;;;;5072581;28;20051;-87
2023/06/16 11:48:46;;;;;;;0.00;0.00;;;;;;;;;;5071534;28;20079;-87
2023/06/16 11:51:13;;;;;;;0.00;0.00;;;;;;;;;;5071332;28;20079;-86
2023/06/16 11:53:40;;;;;;;0.00;0.00;;;;;;;;;;5071436;28;20403;-86
2023/06/16 11:56:09;;;;;;;0.00;0.00;;;;;;;;;;5071583;28;20063;-86
2023/06/16 11:58:35;;;;;;;0.00;0.00;;;;;;;;;;5071365;28;20052;-85
2023/06/16 12:01:03;;;;;;;0.00;0.00;;;;;;;;;;5071242;28;20398;-86
2023/06/16 12:03:35;;;;;;;0.00;0.00;;;;;;;;;;5071320;28;20074;-87
2023/06/16 12:06:06;;;;;;;0.00;0.00;;;;;;;;;;5072263;28;20052;-86
2023/06/16 12:08:36;;;;;;;0.00;0.00;;;;;;;;;;5073104;28;20040;-92
2023/06/16 12:11:02;;;;;;;0.00;0.00;;;;;;;;;;5071141;28;20127;-86
2023/06/16 12:13:29;;;;;;;0.00;0.00;;;;;;;;;;5054647;28;20090;-87
2023/06/16 12:15:55;;;;;;;0.00;0.00;;;;;;;;;;5072274;28;20047;-87
2023/06/16 12:18:21;;;;;;;0.00;0.00;;;;;;;;;;5072440;28;20102;-86
2023/06/16 12:20:47;;;;;;;0.00;0.00;;;;;;;;;;5071053;28;20041;-86
2023/06/16 12:23:13;;;;;;;0.00;0.00;;;;;;;;;;5071289;28;20381;-86
2023/06/16 12:25:40;;;;;;;0.00;0.00;;;;;;;;;;5073332;28;20041;-86
2023/06/16 12:28:06;;;;;;;0.00;0.00;;;;;;;;;;5071462;28;20131;-87
2023/06/16 12:30:33;;;;;;;0.00;0.00;;;;;;;;;;5070989;28;20041;-86
2023/06/16 12:33:07;;;;;;;0.00;0.00;;;;;;;;;;5070643;28;20044;-85
2023/06/16 12:35:33;;;;;;;0.00;0.00;;;;;;;;;;5071010;28;20045;-87
2023/06/16 12:37:59;;;;;;;0.00;0.00;;;;;;;;;;5071091;28;20124;-85
2023/06/16 12:40:28;;;;;;;0.00;0.00;;;;;;;;;;5072394;28;20476;-86
2023/06/16 12:42:54;;;;;;;0.00;0.00;;;;;;;;;;5075341;28;20106;-86
2023/06/16 12:45:20;;;;;;;0.00;0.00;;;;;;;;;;5074790;28;20041;-86
2023/06/16 12:47:46;;;;;;;0.00;0.00;;;;;;;;;;5076422;28;20474;-87
2023/06/16 12:50:12;;;;;;;0.00;0.00;;;;;;;;;;5076526;28;20096;-86
2023/06/16 12:52:38;;;;;;;0.00;0.00;;;;;;;;;;5075726;28;20037;-86
2023/06/16 12:55:04;;;;;;;0.00;0.00;;;;;;;;;;5075811;28;20045;-87
2023/06/16 12:57:30;;;;;;;1.27;0.00;;;;;;;;;;5074134;28;20063;-87
2023/06/16 12:59:56;;;;;;;0.00;0.00;;;;;;;;;;5074371;28;20075;-86
2023/06/16 13:02:22;;;;;;;0.00;0.00;;;;;;;;;;5074247;28;20045;-88
2023/06/16 13:04:48;;;;;;;0.00;0.00;;;;;;;;;;5075775;28;20037;-86
2023/06/16 13:07:15;;;;;;;0.00;0.00;;;;;;;;;;5074133;28;20462;-86
2023/06/16 13:09:41;;;;;;;0.00;0.00;;;;;;;;;;5074077;28;20056;-88
2023/06/16 13:12:08;;;;;;;0.00;0.00;;;;;;;;;;5074143;28;20056;-86
2023/06/16 13:14:34;;;;;;;0.00;0.00;;;;;;;;;;5074351;28;20049;-87
2023/06/16 13:17:00;;;;;;;0.00;0.00;;;;;;;;;;5073927;28;20503;-87
2023/06/16 13:19:26;;;;;;;0.00;0.00;;;;;;;;;;5075374;28;20036;-87
2023/06/16 13:21:52;;;;;;;0.00;0.00;;;;;;;;;;5073945;28;20094;-87
2023/06/16 13:24:18;;;;;;;0.00;0.00;;;;;;;;;;5074161;28;20047;-86
2023/06/16 13:26:44;;;;;;;0.00;0.00;;;;;;;;;;5074048;28;20044;-87
2023/06/16 13:29:10;;;;;;;0.00;0.00;;;;;;;;;;5073995;28;20123;-87
2023/06/16 13:31:36;;;;;;;0.00;0.00;;;;;;;;;;5075087;28;20072;-87
2023/06/16 13:34:02;;;;;;;0.00;0.00;;;;;;;;;;5074270;28;20044;-89
2023/06/16 13:36:28;;;;;;;0.00;0.00;;;;;;;;;;5075768;28;20044;-86
2023/06/16 13:38:55;;;;;;;0.00;0.00;;;;;;;;;;5074936;28;20075;-85
2023/06/16 13:41:21;;;;;;;0.00;0.00;;;;;;;;;;5075544;28;20040;-86
2023/06/16 13:43:48;;;;;;;0.00;0.00;;;;;;;;;;5075267;28;20066;-87
2023/06/16 13:46:17;;;;;;;0.00;0.00;;;;;;;;;;5078233;28;20043;-86
2023/06/16 13:48:47;;;;;;;0.00;0.00;;;;;;;;;;5073677;28;20051;-87
2023/06/16 13:51:13;;;;;;;0.00;0.00;;;;;;;;;;5057017;28;20036;-86
2023/06/16 13:53:40;;;;;;;0.00;0.00;;;;;;;;;;5073128;28;20407;-87
2023/06/16 13:56:06;;;;;;;0.00;0.00;;;;;;;;;;5073450;28;20056;-86
2023/06/16 13:58:32;;;;;;;0.00;0.00;;;;;;;;;;5074536;28;20387;-88
2023/06/16 14:00:58;;;;;;;0.00;0.00;;;;;;;;;;5073601;28;20050;-87
2023/06/16 14:03:25;;;;;;;0.00;0.00;;;;;;;;;;5073174;28;20048;-85
2023/06/16 14:05:53;;;;;;;0.00;0.00;;;;;;;;;;5073558;28;20045;-87
2023/06/16 14:08:19;;;;;;;0.00;0.00;;;;;;;;;;5056739;28;20551;-86
2023/06/16 14:10:45;;;;;;;0.00;0.00;;;;;;;;;;5074618;28;20119;-87
2023/06/16 14:13:12;;;;;;;0.00;0.00;;;;;;;;;;5074401;28;20040;-86
2023/06/16 14:15:38;;;;;;;0.00;0.00;;;;;;;;;;5073292;28;20036;-86
2023/06/16 14:18:04;;;;;;;0.00;0.00;;;;;;;;;;5074316;28;20120;-86
2023/06/16 14:20:30;;;;;;;0.00;0.00;;;;;;;;;;5074327;28;20491;-87
2023/06/16 14:22:56;;;;;;;0.00;0.00;;;;;;;;;;5072918;28;20057;-85
2023/06/16 14:25:22;;;;;;;0.00;0.00;;;;;;;;;;5074416;28;20187;-87
2023/06/16 14:27:48;;;;;;;0.00;0.00;;;;;;;;;;5072667;28;20045;-88
2023/06/16 14:30:15;;;;;;;0.00;0.00;;;;;;;;;;5074024;28;20036;-86
2023/06/16 14:32:42;;;;;;;0.00;0.00;;;;;;;;;;5072650;28;20048;-87
2023/06/16 14:35:08;;;;;;;0.00;0.00;;;;;;;;;;5074212;28;20047;-85
2023/06/16 14:37:35;;;;;;;0.00;0.00;;;;;;;;;;5072288;28;20052;-85
2023/06/16 14:40:01;;;;;;;0.00;0.00;;;;;;;;;;5073799;28;20115;-84
2023/06/16 14:42:27;;;;;;;0.00;0.00;;;;;;;;;;5072518;28;20135;-84